Time;durP1;ratioP1;P1;durP2;ratioP2;P2;SDS_P1;SDS_P2;PMS_P1;PMS_P2;Temp;Humidity;BMP_temperature;BMP_pressure;BME280_temperature;BME280_humidity;BME280_pressure;Samples;Min_cycle;Max_cycle;Signal;HPM_P1;HPM_P2
2021/10/19 00:01:07;;;;;;;24.18;11.53;;;;;;;3.54;83.70;98783.78;1791974;80;21055;-77
2021/10/19 00:03:33;;;;;;;17.85;10.72;;;;;;;3.53;84.13;98776.80;1791834;80;21019;-78
2021/10/19 00:06:00;;;;;;;21.17;10.85;;;;;;;3.52;83.80;98777.66;1792079;80;21008;-77
2021/10/19 00:08:26;;;;;;;16.80;10.60;;;;;;;3.48;84.52;98779.80;1796368;79;20998;-77
2021/10/19 00:10:52;;;;;;;22.42;11.65;;;;;;;3.42;85.95;98779.31;1824608;79;20995;-77
2021/10/19 00:13:19;;;;;;;19.98;11.40;;;;;;;3.39;84.70;98779.68;1824900;79;20978;-78
2021/10/19 00:15:46;;;;;;;19.37;11.30;;;;;;;3.37;85.33;98779.66;1824772;79;21428;-77
2021/10/19 00:18:12;;;;;;;17.05;11.50;;;;;;;3.36;85.51;98783.59;1823763;79;21046;-78
2021/10/19 00:20:38;;;;;;;22.35;11.55;;;;;;;3.37;84.42;98778.80;1792151;79;20968;-77
2021/10/19 00:23:05;;;;;;;21.30;11.78;;;;;;;3.35;84.62;98784.02;1791885;80;20932;-78
2021/10/19 00:25:32;;;;;;;20.43;11.43;;;;;;;3.36;84.08;98786.22;1791794;80;21089;-79
2021/10/19 00:27:58;;;;;;;18.15;10.78;;;;;;;3.34;85.38;98779.64;1811217;79;21341;-79
2021/10/19 00:30:24;;;;;;;21.85;11.85;;;;;;;3.32;84.63;98789.20;1824988;79;20979;-79
2021/10/19 00:32:50;;;;;;;20.92;11.55;;;;;;;3.30;84.25;98785.28;1824752;78;21030;-78
2021/10/19 00:35:18;;;;;;;20.48;11.33;;;;;;;3.30;83.95;98791.83;1783384;79;21732;-77
2021/10/19 00:37:45;;;;;;;19.15;11.65;;;;;;;3.30;84.69;98777.84;1790731;79;20965;-78
2021/10/19 00:40:12;;;;;;;20.77;11.53;;;;;;;3.27;83.88;98780.41;1791417;80;20995;-78
2021/10/19 00:42:38;;;;;;;19.05;10.95;;;;;;;3.27;83.90;98776.06;1756288;81;21055;-78
2021/10/19 00:45:07;;;;;;;17.37;10.53;;;;;;;3.24;83.54;98781.25;1726348;83;21024;-77
2021/10/19 00:47:35;;;;;;;22.02;11.50;;;;;;;3.24;83.78;98779.08;1756671;79;21023;-77
2021/10/19 00:50:03;;;;;;;16.17;9.88;;;;;;;3.25;83.49;98784.76;1761106;81;21061;-77
2021/10/19 00:52:30;;;;;;;17.60;10.68;;;;;;;3.24;83.24;98784.31;1764005;81;21022;-77
2021/10/19 00:54:56;;;;;;;19.32;10.20;;;;;;;3.22;83.72;98784.29;1795028;79;20984;-77
2021/10/19 00:57:23;;;;;;;18.42;11.05;;;;;;;3.22;83.20;98788.22;1791836;79;21022;-77
2021/10/19 00:59:49;;;;;;;18.75;10.40;;;;;;;3.21;83.00;98788.20;1786044;80;21050;-77
2021/10/19 01:02:16;;;;;;;21.33;11.18;;;;;;;3.21;83.09;98796.05;1754330;82;21006;-77
2021/10/19 01:04:44;;;;;;;17.65;10.50;;;;;;;3.24;82.93;98793.48;1770577;79;21007;-77
2021/10/19 01:07:13;;;;;;;19.45;10.58;;;;;;;3.19;83.12;98793.41;1791886;80;21230;-77
2021/10/19 01:09:40;;;;;;;17.23;9.98;;;;;;;3.20;83.27;98795.16;1791827;80;21402;-77
2021/10/19 01:12:09;;;;;;;17.05;10.13;;;;;;;3.22;83.46;98796.50;1784434;80;21404;-77
2021/10/19 01:14:37;;;;;;;16.57;9.53;;;;;;;3.25;83.58;98798.75;1773795;79;21084;-77
2021/10/19 01:17:08;;;;;;;16.17;9.55;;;;;;;3.24;83.49;98798.73;1824586;79;20979;-77
2021/10/19 01:19:35;;;;;;;18.05;9.60;;;;;;;3.27;83.81;98802.26;1824803;79;21006;-76
2021/10/19 01:22:06;;;;;;;14.13;9.05;;;;;;;3.29;83.91;98791.36;1824695;79;21007;-77
2021/10/19 01:24:32;;;;;;;16.10;9.58;;;;;;;3.32;84.12;98804.06;1815051;78;21409;-76
2021/10/19 01:26:59;;;;;;;18.50;10.03;;;;;;;3.34;84.32;98804.53;1791813;80;20991;-76
2021/10/19 01:29:25;;;;;;;18.12;10.32;;;;;;;3.34;84.12;98800.59;1791776;80;21048;-77
2021/10/19 01:31:55;;;;;;;17.15;9.95;;;;;;;3.35;84.02;98802.35;1791848;80;21014;-77
2021/10/19 01:34:22;;;;;;;16.37;9.55;;;;;;;3.32;83.88;98797.06;1798250;78;21049;-77
2021/10/19 01:36:49;;;;;;;16.15;10.40;;;;;;;3.32;83.82;98794.89;1824196;79;20986;-77
2021/10/19 01:39:16;;;;;;;14.58;8.98;;;;;;;3.24;83.70;98800.03;1824776;79;21026;-77
2021/10/19 01:41:42;;;;;;;16.62;10.18;;;;;;;3.19;83.67;98799.09;1824474;79;21483;-77
2021/10/19 01:44:09;;;;;;;14.58;9.90;;;;;;;3.19;83.45;98797.79;1788115;79;21572;-77
2021/10/19 01:46:38;;;;;;;18.80;10.75;;;;;;;3.14;83.14;98807.77;1824658;79;20963;-76
2021/10/19 01:49:04;;;;;;;17.77;9.78;;;;;;;3.06;83.41;98810.70;1811926;79;21023;-77
2021/10/19 01:51:31;;;;;;;16.97;10.10;;;;;;;3.03;83.07;98806.30;1791773;80;21087;-77
2021/10/19 01:53:58;;;;;;;17.73;10.50;;;;;;;2.96;82.87;98803.58;1792292;79;21037;-77
2021/10/19 01:56:25;;;;;;;16.45;10.50;;;;;;;2.91;82.70;98808.77;1798982;79;21009;-77
2021/10/19 01:58:51;;;;;;;16.93;10.15;;;;;;;2.83;83.01;98809.93;1824640;79;21004;-77
2021/10/19 02:01:20;;;;;;;18.85;10.30;;;;;;;2.79;83.67;98805.95;1824728;79;20970;-77
2021/10/19 02:03:47;;;;;;;15.78;9.93;;;;;;;2.78;83.52;98806.36;1824524;78;20987;-77
2021/10/19 02:06:13;;;;;;;19.45;11.03;;;;;;;2.77;83.05;98809.43;1794008;78;20996;-77
2021/10/19 02:08:39;;;;;;;17.98;9.63;;;;;;;2.73;82.71;98808.03;1791396;80;21023;-77
2021/10/19 02:11:06;;;;;;;17.27;10.30;;;;;;;2.67;83.17;98806.23;1792150;79;21378;-78
2021/10/19 02:13:32;;;;;;;18.17;10.13;;;;;;;2.67;82.79;98806.64;1823602;79;21034;-77
2021/10/19 02:15:58;;;;;;;15.80;9.73;;;;;;;2.63;83.17;98807.03;1824517;79;21006;-77
2021/10/19 02:18:25;;;;;;;18.12;10.15;;;;;;;2.60;84.70;98809.59;1824253;79;21030;-77
2021/10/19 02:20:51;;;;;;;17.42;9.55;;;;;;;2.58;83.51;98806.08;1824628;79;21400;-78
2021/10/19 02:23:18;;;;;;;19.57;9.53;;;;;;;2.57;83.42;98807.80;1794513;79;20969;-78
2021/10/19 02:25:44;;;;;;;16.30;10.88;;;;;;;2.53;83.59;98798.59;1791758;80;21008;-77
2021/10/19 02:28:11;;;;;;;16.62;10.08;;;;;;;2.52;83.76;98804.69;1791677;80;21456;-76
2021/10/19 02:30:37;;;;;;;16.77;9.43;;;;;;;2.49;83.90;98807.69;1791904;80;20952;-76
2021/10/19 02:33:04;;;;;;;18.92;9.98;;;;;;;2.49;83.54;98813.36;1818050;79;20965;-77
2021/10/19 02:35:31;;;;;;;19.25;11.10;;;;;;;2.52;83.34;98816.02;1823868;79;21010;-76
2021/10/19 02:37:57;;;;;;;14.25;9.33;;;;;;;2.52;83.34;98805.55;1797006;79;21417;-77
2021/10/19 02:40:24;;;;;;;19.37;10.40;;;;;;;2.52;83.83;98811.23;1824801;79;20999;-77
2021/10/19 02:42:52;;;;;;;17.85;10.53;;;;;;;2.52;83.40;98816.45;1801376;79;20992;-77
2021/10/19 02:45:19;;;;;;;16.77;9.83;;;;;;;2.49;83.33;98826.45;1791932;79;20959;-78
2021/10/19 02:47:45;;;;;;;17.25;9.73;;;;;;;2.45;83.16;98824.63;1791952;80;21106;-78
2021/10/19 02:50:13;;;;;;;18.17;9.90;;;;;;;2.38;84.83;98827.12;1760250;80;21422;-78
2021/10/19 02:52:40;;;;;;;13.32;9.20;;;;;;;2.35;85.04;98826.20;1775488;79;21443;-78
2021/10/19 02:55:09;;;;;;;15.08;9.10;;;;;;;2.37;83.86;98828.43;1744874;80;20999;-78
2021/10/19 02:57:39;;;;;;;15.18;8.83;;;;;;;2.40;83.98;98833.70;1774054;80;20974;-78
2021/10/19 03:00:08;;;;;;;14.50;9.70;;;;;;;2.43;84.16;98834.17;1763769;81;21050;-78
2021/10/19 03:02:35;;;;;;;15.32;8.83;;;;;;;2.45;84.00;98837.27;1810967;79;21495;-77
2021/10/19 03:05:02;;;;;;;15.60;9.30;;;;;;;2.46;83.99;98840.33;1798703;79;21036;-77
2021/10/19 03:07:29;;;;;;;15.13;8.45;;;;;;;2.45;84.20;98839.88;1791843;80;21050;-77
2021/10/19 03:09:55;;;;;;;13.83;8.50;;;;;;;2.48;84.62;98837.33;1792141;80;21416;-77
2021/10/19 03:12:22;;;;;;;15.00;8.78;;;;;;;2.54;84.64;98841.80;1807799;77;20975;-77
2021/10/19 03:14:48;;;;;;;17.60;8.95;;;;;;;2.57;84.53;98837.03;1824848;79;20987;-77
2021/10/19 03:17:15;;;;;;;14.10;9.08;;;;;;;2.58;84.76;98846.20;1824886;79;21030;-78
2021/10/19 03:19:41;;;;;;;14.25;8.65;;;;;;;2.57;84.86;98840.52;1824970;79;21031;-77
2021/10/19 03:22:08;;;;;;;13.62;8.95;;;;;;;2.54;84.94;98844.41;1824118;79;20966;-78
2021/10/19 03:24:34;;;;;;;14.87;9.43;;;;;;;2.51;84.67;98844.34;1824970;79;21452;-77
2021/10/19 03:27:01;;;;;;;16.40;9.13;;;;;;;2.46;84.56;98850.80;1824766;79;21037;-77
2021/10/19 03:29:27;;;;;;;15.08;9.10;;;;;;;2.43;84.26;98852.48;1823906;79;21010;-78
2021/10/19 03:31:54;;;;;;;17.37;9.43;;;;;;;2.38;84.27;98855.03;1824983;79;20990;-77
2021/10/19 03:34:20;;;;;;;19.32;9.38;;;;;;;2.37;84.10;98853.28;1823769;78;21420;-78
2021/10/19 03:36:47;;;;;;;16.40;9.93;;;;;;;2.31;83.81;98856.66;1822738;78;20948;-77
2021/10/19 03:39:14;;;;;;;17.25;9.20;;;;;;;2.26;83.94;98860.03;1812670;79;20952;-78
2021/10/19 03:41:41;;;;;;;13.43;8.88;;;;;;;2.17;83.56;98860.34;1795616;79;20979;-77
2021/10/19 03:44:07;;;;;;;14.78;8.65;;;;;;;2.10;83.96;98875.04;1795673;80;20963;-77
2021/10/19 03:46:34;;;;;;;15.10;9.13;;;;;;;2.08;83.87;98874.56;1795604;80;20964;-78
2021/10/19 03:49:01;;;;;;;16.12;9.35;;;;;;;2.06;83.81;98873.22;1795707;79;20960;-77
2021/10/19 03:51:27;;;;;;;18.00;9.68;;;;;;;2.05;83.68;98874.08;1771057;80;21409;-77
2021/10/19 03:53:53;;;;;;;15.40;9.13;;;;;;;1.99;83.46;98876.55;1785249;79;21011;-77
2021/10/19 03:56:20;;;;;;;14.73;9.30;;;;;;;1.95;83.62;98886.07;1753679;80;21063;-78
2021/10/19 03:58:46;;;;;;;17.67;9.88;;;;;;;1.94;83.83;98889.95;1771384;81;21445;-77
2021/10/19 04:01:12;;;;;;;16.50;9.40;;;;;;;1.91;83.57;98887.30;1771510;81;21075;-78
2021/10/19 04:03:39;;;;;;;16.50;9.73;;;;;;;1.88;83.93;98886.81;1771265;81;21161;-77
2021/10/19 04:06:07;;;;;;;19.12;9.88;;;;;;;1.90;84.00;98889.44;1778358;80;21023;-77
2021/10/19 04:08:34;;;;;;;20.68;9.88;;;;;;;1.90;83.80;98886.82;1798821;79;20949;-76
2021/10/19 04:11:00;;;;;;;18.05;10.30;;;;;;;1.91;83.63;98887.30;1799528;79;21039;-77
2021/10/19 04:13:26;;;;;;;16.17;9.00;;;;;;;1.90;84.36;98892.95;1822862;79;21402;-77
2021/10/19 04:15:55;;;;;;;17.32;10.00;;;;;;;1.89;85.83;98893.80;1820878;79;21054;-77
2021/10/19 04:18:21;;;;;;;15.28;8.93;;;;;;;1.88;84.12;98897.69;1798524;79;21473;-77
2021/10/19 04:20:48;;;;;;;15.70;8.70;;;;;;;1.88;84.64;98893.77;1749118;81;20947;-77
2021/10/19 04:23:14;;;;;;;20.82;9.85;;;;;;;1.85;85.49;98898.51;1795428;80;21281;-77
2021/10/19 04:25:41;;;;;;;17.92;8.75;;;;;;;1.86;84.42;98896.79;1797119;79;20987;-77
2021/10/19 04:28:07;;;;;;;14.35;8.85;;;;;;;1.85;84.62;98899.81;1815726;79;20975;-77
2021/10/19 04:30:34;;;;;;;14.85;8.63;;;;;;;1.87;84.54;98901.16;1795545;80;20975;-77
2021/10/19 04:33:00;;;;;;;14.35;8.55;;;;;;;1.88;84.23;98901.20;1795687;80;20995;-77
2021/10/19 04:35:27;;;;;;;19.92;9.80;;;;;;;1.89;84.16;98900.34;1793461;79;20992;-77
2021/10/19 04:37:53;;;;;;;14.68;9.50;;;;;;;1.89;84.06;98895.52;1793278;79;21011;-78
2021/10/19 04:40:20;;;;;;;20.85;10.38;;;;;;;1.87;84.24;98899.41;1792913;80;21012;-77
2021/10/19 04:42:46;;;;;;;18.57;10.03;;;;;;;1.83;83.96;98902.39;1792759;80;21023;-77
2021/10/19 04:45:16;;;;;;;21.65;11.10;;;;;;;1.82;83.76;98905.86;1792533;80;20941;-77
2021/10/19 04:47:44;;;;;;;16.48;9.25;;;;;;;1.84;83.85;98911.99;1796652;79;20976;-77
2021/10/19 04:50:10;;;;;;;15.63;9.48;;;;;;;1.88;83.94;98905.12;1758714;81;20967;-77
2021/10/19 04:52:38;;;;;;;16.93;9.65;;;;;;;1.89;83.87;98900.75;1756408;81;21034;-77
2021/10/19 04:55:06;;;;;;;14.18;8.83;;;;;;;1.90;84.04;98903.81;1717435;82;21015;-76
2021/10/19 04:57:33;;;;;;;14.18;8.63;;;;;;;1.91;84.30;98905.60;1765459;81;21409;-79
2021/10/19 05:00:00;;;;;;;13.90;8.83;;;;;;;1.96;84.60;98907.44;1770857;81;20983;-78
2021/10/19 05:02:26;;;;;;;19.00;8.93;;;;;;;2.03;85.01;98907.14;1771396;81;20953;-78
2021/10/19 05:04:53;;;;;;;13.98;8.68;;;;;;;2.10;85.08;98906.84;1771326;81;20984;-78
2021/10/19 05:07:19;;;;;;;16.17;8.28;;;;;;;2.17;85.12;98901.30;1765769;81;21544;-78
2021/10/19 05:09:45;;;;;;;14.28;9.15;;;;;;;2.23;85.12;98901.41;1775532;81;21031;-78
2021/10/19 05:12:12;;;;;;;17.73;9.53;;;;;;;2.27;85.10;98903.64;1775854;81;21042;-78
2021/10/19 05:14:38;;;;;;;15.72;8.90;;;;;;;2.31;85.06;98898.52;1755677;81;21475;-78
2021/10/19 05:17:05;;;;;;;15.50;9.60;;;;;;;2.32;84.92;98906.81;1750099;81;21014;-77
2021/10/19 05:19:32;;;;;;;19.20;10.68;;;;;;;2.35;84.75;98909.91;1740091;82;21011;-78
2021/10/19 05:21:59;;;;;;;17.07;9.78;;;;;;;2.38;84.61;98908.67;1712365;84;21072;-78
2021/10/19 05:24:25;;;;;;;16.95;9.53;;;;;;;2.38;84.36;98922.61;1712402;84;21027;-78
2021/10/19 05:26:52;;;;;;;17.92;9.50;;;;;;;2.38;84.19;98913.91;1742338;81;21484;-77
2021/10/19 05:29:19;;;;;;;16.52;9.35;;;;;;;2.37;84.24;98926.53;1776099;81;20991;-78
2021/10/19 05:31:46;;;;;;;21.57;10.45;;;;;;;2.37;84.15;98925.23;1770935;81;21010;-78
2021/10/19 05:34:12;;;;;;;17.50;10.00;;;;;;;2.37;84.34;98925.23;1762612;79;21112;-78
2021/10/19 05:36:39;;;;;;;50.92;25.02;;;;;;;2.37;83.98;98935.25;1763816;80;20988;-78
2021/10/19 05:39:05;;;;;;;17.82;10.35;;;;;;;2.34;83.84;98935.21;1790122;80;21047;-78
2021/10/19 05:41:32;;;;;;;18.17;9.78;;;;;;;2.34;84.23;98928.67;1790079;80;20984;-78
2021/10/19 05:43:58;;;;;;;21.00;10.90;;;;;;;2.35;84.35;98938.27;1761454;80;20999;-76
2021/10/19 05:46:25;;;;;;;20.48;11.18;;;;;;;2.35;83.92;98932.14;1790048;80;21416;-77
2021/10/19 05:48:52;;;;;;;21.50;10.93;;;;;;;2.36;84.00;98929.56;1790176;80;21011;-77
2021/10/19 05:51:19;;;;;;;18.92;10.30;;;;;;;2.37;83.81;98931.77;1790157;80;20992;-77
2021/10/19 05:53:45;;;;;;;20.30;11.20;;;;;;;2.37;83.89;98927.84;1790258;80;21032;-76
2021/10/19 05:56:11;;;;;;;20.00;10.82;;;;;;;2.36;84.00;98929.56;1790294;80;20983;-77
2021/10/19 05:58:39;;;;;;;19.52;10.20;;;;;;;2.32;84.24;98936.89;1791649;80;21004;-76
2021/10/19 06:01:05;;;;;;;18.00;10.72;;;;;;;2.30;83.96;98939.92;1791733;80;21030;-77
2021/10/19 06:03:32;;;;;;;19.50;10.55;;;;;;;2.33;83.71;98930.80;1791672;80;21437;-77
2021/10/19 06:05:59;;;;;;;25.60;12.15;;;;;;;2.36;83.62;98934.80;1791526;80;21063;-77
2021/10/19 06:08:25;;;;;;;20.60;11.53;;;;;;;2.38;83.48;98945.30;1791532;80;21003;-77
2021/10/19 06:10:55;;;;;;;18.65;10.25;;;;;;;2.40;83.62;98947.50;1791626;80;21425;-78
2021/10/19 06:13:20;;;;;;;17.42;10.75;;;;;;;2.45;83.66;98947.16;1791551;80;20968;-77
2021/10/19 06:15:47;;;;;;;18.02;11.97;;;;;;;2.48;83.53;98942.00;1791690;80;21409;-77
2021/10/19 06:18:14;;;;;;;16.93;10.32;;;;;;;2.53;83.65;98945.98;1791642;80;20980;-77
2021/10/19 06:20:41;;;;;;;19.80;11.78;;;;;;;2.57;84.23;98953.05;1790109;80;21161;-77
2021/10/19 06:23:07;;;;;;;19.92;10.63;;;;;;;2.64;84.07;98940.95;1789647;80;20987;-77
2021/10/19 06:25:34;;;;;;;19.17;11.05;;;;;;;2.71;83.70;98940.64;1790260;80;20949;-77
2021/10/19 06:28:00;;;;;;;19.27;11.35;;;;;;;2.77;83.39;98950.80;1784976;80;21386;-77
2021/10/19 06:30:27;;;;;;;21.62;11.35;;;;;;;2.83;83.59;98953.06;1775613;80;20937;-77
2021/10/19 06:32:53;;;;;;;19.40;11.65;;;;;;;2.89;83.60;98954.05;1778729;80;21050;-78
2021/10/19 06:35:20;;;;;;;22.77;10.38;;;;;;;2.96;83.28;98956.77;1791743;78;21452;-77
2021/10/19 06:37:46;;;;;;;19.12;10.70;;;;;;;3.00;83.41;98958.14;1791619;80;20976;-77
2021/10/19 06:40:13;;;;;;;21.97;11.38;;;;;;;3.06;83.01;98963.91;1791719;80;21421;-77
2021/10/19 06:42:42;;;;;;;20.02;12.07;;;;;;;3.13;83.16;98964.91;1791725;80;21279;-77
2021/10/19 06:45:10;;;;;;;25.90;13.25;;;;;;;3.19;83.04;98965.44;1791296;80;21004;-76
2021/10/19 06:47:36;;;;;;;30.70;14.28;;;;;;;3.27;82.89;98971.24;1791600;80;21031;-77
2021/10/19 06:50:07;;;;;;;24.85;14.78;;;;;;;3.32;82.83;98960.81;1790884;80;21084;-77
2021/10/19 06:52:36;;;;;;;24.10;14.45;;;;;;;3.39;82.73;98958.77;1789206;80;21001;-77
2021/10/19 06:55:06;;;;;;;25.43;13.28;;;;;;;3.48;82.75;98959.77;1789856;80;21052;-77
2021/10/19 06:57:41;;;;;;;24.90;13.75;;;;;;;3.55;82.75;98969.05;1789535;80;21084;-76
2021/10/19 07:00:12;;;;;;;;;;;;;;;3.64;82.74;98968.70;1800228;79;21070;-77
2021/10/19 07:02:39;;;;;;;29.42;13.88;;;;;;;3.72;82.92;98967.50;1780236;80;20151;-77
2021/10/19 07:05:07;;;;;;;27.37;14.43;;;;;;;3.79;82.61;98963.67;1790318;80;20976;-77
2021/10/19 07:07:34;;;;;;;21.68;13.13;;;;;;;3.89;82.89;98958.55;1791687;80;21032;-76
2021/10/19 07:10:04;;;;;;;20.97;11.80;;;;;;;4.00;82.67;98957.39;1790548;80;20977;-76
2021/10/19 07:12:30;;;;;;;25.48;12.33;;;;;;;4.11;82.53;98952.28;1790056;80;21010;-76
2021/10/19 07:14:57;;;;;;;45.65;25.02;;;;;;;4.22;82.35;98954.17;1790135;80;21020;-76
2021/10/19 07:17:24;;;;;;;47.90;26.17;;;;;;;4.34;82.11;98956.48;1787904;80;21375;-76
2021/10/19 07:19:50;;;;;;;22.65;13.58;;;;;;;4.46;82.00;98958.36;1781547;80;21404;-77
2021/10/19 07:22:17;;;;;;;23.80;12.25;;;;;;;4.61;81.91;98958.97;1791946;80;21036;-76
2021/10/19 07:24:47;;;;;;;24.00;11.90;;;;;;;4.74;81.67;98959.96;1791839;80;20996;-77
2021/10/19 07:27:13;;;;;;;17.73;11.60;;;;;;;4.89;81.51;98948.70;1791800;80;21035;-77
2021/10/19 07:29:40;;;;;;;27.70;12.33;;;;;;;5.02;81.10;98952.31;1791877;80;20998;-76
2021/10/19 07:32:06;;;;;;;19.55;10.40;;;;;;;5.14;80.71;98955.05;1784418;79;21000;-77
2021/10/19 07:34:33;;;;;;;16.02;10.05;;;;;;;5.28;79.39;98955.14;1790870;80;20959;-77
2021/10/19 07:37:00;;;;;;;20.05;9.95;;;;;;;5.45;78.45;98957.45;1785551;80;21605;-77
2021/10/19 07:39:27;;;;;;;20.68;10.30;;;;;;;5.61;78.33;98954.04;1785542;80;20964;-76
2021/10/19 07:41:54;;;;;;;15.30;9.53;;;;;;;5.78;77.19;98958.08;1785597;80;21028;-76
2021/10/19 07:44:23;;;;;;;15.88;8.48;;;;;;;5.98;76.54;98952.03;1786800;80;20948;-76
2021/10/19 07:46:52;;;;;;;15.65;7.45;;;;;;;6.18;77.72;98943.38;1787044;80;21011;-77
2021/10/19 07:49:19;;;;;;;14.18;7.70;;;;;;;6.36;76.02;98943.01;1767294;81;21073;-76
2021/10/19 07:51:47;;;;;;;12.73;7.03;;;;;;;6.53;74.50;98945.27;1787191;80;21028;-77
2021/10/19 07:54:14;;;;;;;11.12;7.00;;;;;;;6.70;75.61;98940.45;1758481;81;21036;-77
2021/10/19 07:56:42;;;;;;;11.53;7.17;;;;;;;6.85;75.12;98956.27;1730834;83;21015;-75
2021/10/19 07:59:09;;;;;;;10.05;6.55;;;;;;;7.02;72.64;98954.08;1733591;81;20997;-76
2021/10/19 08:01:36;;;;;;;11.68;8.23;;;;;;;7.18;73.35;98958.05;1787320;80;21444;-76
2021/10/19 08:04:04;;;;;;;9.78;6.62;;;;;;;7.33;73.34;98962.42;1767035;81;20991;-76
2021/10/19 08:06:30;;;;;;;12.93;8.00;;;;;;;7.46;71.35;98958.01;1788918;79;20995;-76
2021/10/19 08:08:57;;;;;;;13.15;7.75;;;;;;;7.60;70.56;98957.55;1766228;80;20957;-77
2021/10/19 08:11:23;;;;;;;14.10;7.33;;;;;;;7.73;69.88;98957.08;1787567;78;20999;-75
2021/10/19 08:13:53;;;;;;;12.45;6.75;;;;;;;7.85;71.70;98956.16;1767174;81;21014;-75
2021/10/19 08:16:18;;;;;;;11.73;7.58;;;;;;;7.95;71.35;98953.07;1791304;79;20939;-76
2021/10/19 08:18:44;;;;;;;12.53;7.47;;;;;;;8.04;71.05;98952.15;1794671;79;21457;-76
2021/10/19 08:21:11;;;;;;;13.10;8.15;;;;;;;8.12;71.27;98949.05;1787211;80;21351;-75
2021/10/19 08:23:37;;;;;;;11.00;7.17;;;;;;;8.23;71.35;98958.68;1787264;80;21091;-76
2021/10/19 08:26:03;;;;;;;14.65;8.38;;;;;;;8.29;70.03;98962.61;1787343;80;21000;-76
2021/10/19 08:28:31;;;;;;;39.83;23.30;;;;;;;8.35;70.49;98960.39;1787312;80;21032;-77
2021/10/19 08:30:58;;;;;;;15.40;8.90;;;;;;;8.43;70.49;98963.88;1787335;80;21020;-77
2021/10/19 08:33:25;;;;;;;13.60;7.97;;;;;;;8.51;70.30;98961.19;1787201;80;21028;-75
2021/10/19 08:35:52;;;;;;;12.60;7.92;;;;;;;8.60;70.74;98955.00;1786946;79;21036;-76
2021/10/19 08:38:18;;;;;;;14.43;8.18;;;;;;;8.65;71.12;98962.03;1787323;80;21019;-76
2021/10/19 08:40:45;;;;;;;14.47;8.18;;;;;;;8.71;71.13;98955.38;1787277;80;20999;-81
2021/10/19 08:43:11;;;;;;;13.00;8.43;;;;;;;8.80;70.54;98960.17;1787394;80;21060;-81
2021/10/19 08:45:38;;;;;;;13.05;8.33;;;;;;;8.90;70.55;98951.72;1787421;80;20997;-81
2021/10/19 08:48:07;;;;;;;12.28;7.47;;;;;;;9.00;70.32;98949.90;1787156;80;22070;-82
2021/10/19 08:50:33;;;;;;;13.30;8.65;;;;;;;9.07;68.81;98951.59;1785449;80;20990;-80
2021/10/19 08:52:59;;;;;;;10.95;7.15;;;;;;;9.17;69.44;98955.05;1785728;80;20990;-81
2021/10/19 08:55:26;;;;;;;13.48;6.90;;;;;;;9.26;68.06;98954.09;1771412;79;21004;-77
2021/10/19 08:57:52;;;;;;;8.00;5.72;;;;;;;9.36;69.09;98957.08;1787503;79;21012;-81
2021/10/19 09:00:22;;;;;;;8.80;6.05;;;;;;;9.49;68.02;98953.87;1788245;79;21410;-81
2021/10/19 09:02:49;;;;;;;11.43;7.55;;;;;;;9.60;66.88;98948.48;1786066;79;21005;-82
2021/10/19 09:05:23;;;;;;;14.98;7.62;;;;;;;9.72;67.51;98946.16;1783906;80;21013;-82
2021/10/19 09:08:03;;;;;;;9.73;6.20;;;;;;;9.83;65.51;98944.69;1771149;79;21082;-79
2021/10/19 09:10:36;;;;;;;8.95;5.35;;;;;;;9.96;65.36;98939.69;1795665;79;21345;-80
2021/10/19 09:13:16;;;;;;;10.75;6.50;;;;;;;10.09;65.67;98940.41;1796285;79;20962;-79
2021/10/19 09:15:45;;;;;;;10.48;5.22;;;;;;;10.18;66.33;98947.39;1791517;79;20968;-80
2021/10/19 09:18:15;;;;;;;20.12;12.63;;;;;;;10.26;66.52;98950.80;1787288;80;21047;-79
2021/10/19 09:20:50;;;;;;;5.90;3.25;;;;;;;10.34;61.56;98944.06;1773980;80;20955;-79
2021/10/19 09:23:21;;;;;;;5.12;3.65;;;;;;;10.46;56.50;98948.83;1767193;81;21378;-80
2021/10/19 09:25:50;;;;;;;6.20;4.10;;;;;;;10.54;61.09;98938.97;1787504;80;20952;-79
2021/10/19 09:28:37;;;;;;;6.12;3.80;;;;;;;10.60;60.36;98932.28;1794685;79;21428;-80
2021/10/19 09:31:04;;;;;;;4.78;3.20;;;;;;;10.68;59.81;98933.49;1777728;79;21070;-79
2021/10/19 09:33:31;;;;;;;6.90;3.67;;;;;;;10.74;60.52;98923.22;1747768;82;20976;-80
2021/10/19 09:36:01;;;;;;;4.97;3.30;;;;;;;10.82;58.70;98923.98;1729266;81;21084;-77
2021/10/19 09:38:28;;;;;;;5.35;3.42;;;;;;;10.88;58.68;98913.28;1737904;82;20977;-79
2021/10/19 09:40:58;;;;;;;6.28;3.72;;;;;;;10.96;59.67;98914.48;1774399;80;21051;-82
2021/10/19 09:43:30;;;;;;;8.30;4.85;;;;;;;11.07;60.22;98916.96;1792596;79;20976;-80
2021/10/19 09:46:01;;;;;;;7.33;5.33;;;;;;;11.15;60.20;98912.41;1794080;79;20976;-77
2021/10/19 09:48:32;;;;;;;7.67;5.17;;;;;;;11.21;59.61;98912.73;1773197;81;22358;-79
2021/10/19 09:51:01;;;;;;;12.10;5.65;;;;;;;11.29;59.94;98910.84;1792044;79;21385;-77
2021/10/19 09:53:29;;;;;;;5.80;4.37;;;;;;;11.39;59.16;98910.23;1800797;79;21386;-80
2021/10/19 09:55:58;;;;;;;9.10;5.45;;;;;;;11.47;58.66;98908.77;1771587;81;21460;-79
2021/10/19 09:58:26;;;;;;;6.90;4.53;;;;;;;11.58;59.80;98911.19;1771607;81;21476;-80
2021/10/19 10:00:53;;;;;;;9.10;4.87;;;;;;;11.66;56.43;98915.91;1775187;79;21504;-80
2021/10/19 10:03:24;;;;;;;7.87;5.20;;;;;;;11.74;56.39;98909.13;1801218;79;21030;-80
2021/10/19 10:05:51;;;;;;;8.25;4.87;;;;;;;11.83;53.46;98914.26;1788122;79;21055;-81
2021/10/19 10:08:23;;;;;;;7.60;4.58;;;;;;;11.86;53.57;98910.66;1777998;79;20986;-79
2021/10/19 10:10:57;;;;;;;7.53;4.75;;;;;;;11.94;53.49;98911.39;1790933;79;21480;-79
2021/10/19 10:13:28;;;;;;;9.93;5.70;;;;;;;11.98;54.39;98903.79;1789952;80;21032;-78
2021/10/19 10:15:57;;;;;;;8.15;5.28;;;;;;;12.05;53.41;98895.72;1793619;80;21031;-77
2021/10/19 10:18:33;;;;;;;8.05;5.08;;;;;;;12.14;55.84;98891.54;1791563;80;21008;-81
2021/10/19 10:21:15;;;;;;;6.40;4.25;;;;;;;12.23;56.38;98892.67;1779603;80;21019;-80
2021/10/19 10:23:43;;;;;;;7.85;5.00;;;;;;;12.39;57.00;98885.67;1805580;79;21159;-78
2021/10/19 10:26:24;;;;;;;10.50;5.25;;;;;;;12.91;56.74;98884.00;1792306;78;20975;-79
2021/10/19 10:28:51;;;;;;;8.25;5.37;;;;;;;13.72;53.54;98888.60;1819777;79;21053;-80
2021/10/19 10:31:21;;;;;;;6.00;4.78;;;;;;;14.87;53.76;98884.30;1802994;79;21435;-78
2021/10/19 10:34:01;;;;;;;8.63;5.10;;;;;;;15.93;53.68;98869.52;1813416;79;21055;-80
2021/10/19 10:36:38;;;;;;;5.00;4.40;;;;;;;17.02;49.56;98865.69;1793176;78;21012;-79
2021/10/19 10:39:07;;;;;;;6.67;4.95;;;;;;;18.03;43.81;98859.11;1758666;81;21073;-81
2021/10/19 10:41:42;;;;;;;6.45;4.72;;;;;;;19.05;46.00;98857.89;1809703;79;20968;-80
2021/10/19 10:44:17;;;;;;;7.83;5.60;;;;;;;19.97;40.92;98851.77;1794526;79;20937;-81
2021/10/19 10:46:47;;;;;;;9.65;4.92;;;;;;;20.64;40.97;98846.76;1784661;80;21035;-81
2021/10/19 10:49:18;;;;;;;8.28;5.45;;;;;;;21.44;41.72;98849.75;1784295;80;21003;-79
2021/10/19 10:51:50;;;;;;;5.73;4.50;;;;;;;21.82;37.72;98845.20;1796028;79;20940;-79
2021/10/19 10:54:19;;;;;;;6.33;4.72;;;;;;;22.16;36.74;98850.28;1778930;79;21323;-77
2021/10/19 10:56:54;;;;;;;6.00;4.25;;;;;;;22.42;37.99;98850.42;1784072;80;21013;-78
2021/10/19 10:59:33;;;;;;;6.17;4.53;;;;;;;22.60;36.99;98837.61;1783277;80;21020;-77
2021/10/19 11:02:10;;;;;;;6.05;4.62;;;;;;;23.60;37.04;98830.94;1783241;80;21404;-78
2021/10/19 11:04:50;;;;;;;6.03;4.80;;;;;;;24.31;33.32;98827.73;1782971;80;20993;-78
2021/10/19 11:07:34;;;;;;;7.72;4.67;;;;;;;24.85;33.01;98836.92;1801259;79;21353;-77
2021/10/19 11:10:13;;;;;;;6.97;4.83;;;;;;;25.33;29.55;98836.02;1812210;79;20992;-79
2021/10/19 11:12:42;;;;;;;6.12;4.45;;;;;;;25.54;26.46;98825.81;1785577;79;21044;-77
2021/10/19 11:15:17;;;;;;;5.72;4.90;;;;;;;25.60;30.38;98829.91;1795621;79;20980;-79
2021/10/19 11:17:56;;;;;;;6.17;4.47;;;;;;;25.79;29.58;98823.91;1760407;80;21050;-79
2021/10/19 11:20:27;;;;;;;5.97;4.50;;;;;;;26.23;30.20;98821.28;1756278;79;21013;-79
2021/10/19 11:22:55;;;;;;;7.42;5.00;;;;;;;26.78;31.12;98816.88;1805733;79;21433;-80
2021/10/19 11:25:22;;;;;;;8.60;5.87;;;;;;;27.01;28.45;98817.66;1783013;80;20965;-79
2021/10/19 11:27:51;;;;;;;7.92;5.75;;;;;;;26.01;25.59;98823.52;1782943;80;20980;-79
2021/10/19 11:30:24;;;;;;;6.92;5.62;;;;;;;24.63;30.02;98817.69;1755838;80;20976;-78
2021/10/19 11:32:51;;;;;;;7.85;6.87;;;;;;;23.99;30.34;98828.19;1716857;84;20987;-79
2021/10/19 11:35:19;;;;;;;9.13;6.17;;;;;;;23.16;30.70;98834.35;1743523;82;20988;-79